createdAt,value
2019-02-27T00:00:29.066Z,4.97
2019-02-27T00:02:57.793Z,5.20
2019-02-27T00:05:26.269Z,5.75
2019-02-27T00:07:55.012Z,5.72
2019-02-27T00:10:23.489Z,5.83
2019-02-27T00:12:52.574Z,6.00
2019-02-27T00:15:21.282Z,5.00
2019-02-27T00:17:51.499Z,5.47
2019-02-27T00:20:19.952Z,5.42
2019-02-27T00:22:50.668Z,5.42
2019-02-27T00:25:18.990Z,5.72
2019-02-27T00:27:49.101Z,4.95
2019-02-27T00:30:17.710Z,6.75
2019-02-27T00:32:48.785Z,6.47
2019-02-27T00:35:16.560Z,5.35
2019-02-27T00:37:44.995Z,5.65
2019-02-27T00:40:13.560Z,6.50
2019-02-27T00:42:42.016Z,6.28
2019-02-27T00:45:11.501Z,6.20
2019-02-27T00:47:39.944Z,6.00
2019-02-27T00:50:09.719Z,5.62
2019-02-27T00:52:38.237Z,6.28
2019-02-27T00:55:07.862Z,5.75
2019-02-27T00:57:36.339Z,5.12
2019-02-27T01:00:07.868Z,5.72
2019-02-27T01:02:36.347Z,5.42
2019-02-27T01:05:25.665Z,5.60
2019-02-27T01:07:54.709Z,5.33
2019-02-27T01:10:23.501Z,5.83
2019-02-27T01:12:52.283Z,6.20
2019-02-27T01:15:20.732Z,6.20
2019-02-27T01:17:49.269Z,5.40
2019-02-27T01:20:17.738Z,5.70
2019-02-27T01:22:46.178Z,6.00
2019-02-27T01:25:14.705Z,5.58
2019-02-27T01:27:43.212Z,6.40
2019-02-27T01:30:16.553Z,6.03
2019-02-27T01:32:45.042Z,5.75
2019-02-27T01:35:17.910Z,6.30
2019-02-27T01:37:44.414Z,5.47
2019-02-27T01:40:17.241Z,5.67
2019-02-27T01:43:06.285Z,5.55
2019-02-27T01:45:34.194Z,5.87
2019-02-27T01:48:02.646Z,5.28
2019-02-27T01:50:33.114Z,5.62
2019-02-27T01:53:01.602Z,5.87
2019-02-27T01:55:30.223Z,5.95
2019-02-27T01:57:58.634Z,5.70
2019-02-27T02:00:27.156Z,6.10
2019-02-27T02:02:55.687Z,5.35
2019-02-27T02:05:27.161Z,5.42
2019-02-27T02:07:55.509Z,5.72
2019-02-27T02:10:27.990Z,5.78
2019-02-27T02:13:03.199Z,5.42
2019-02-27T02:15:37.663Z,6.10
2019-02-27T02:18:23.969Z,5.80
2019-02-27T02:21:05.578Z,5.75
2019-02-27T02:24:11.972Z,6.15
2019-02-27T02:27:08.908Z,6.42
2019-02-27T02:29:40.454Z,5.75
2019-02-27T02:32:32.663Z,6.00
2019-02-27T02:35:24.834Z,6.47
2019-02-27T02:38:14.029Z,6.12
2019-02-27T02:41:18.490Z,5.58
2019-02-27T02:44:40.222Z,5.40
2019-02-27T02:47:11.743Z,5.80
2019-02-27T02:50:10.366Z,6.35
2019-02-27T02:52:53.196Z,6.00
2019-02-27T02:55:36.903Z,5.95
2019-02-27T02:58:12.335Z,6.30
2019-02-27T03:00:43.903Z,6.10
2019-02-27T03:03:18.235Z,7.20
2019-02-27T03:05:59.675Z,7.35
2019-02-27T03:08:54.902Z,6.95
2019-02-27T03:11:24.031Z,7.13
2019-02-27T03:14:17.560Z,6.50
2019-02-27T03:17:22.863Z,6.97
2019-02-27T03:20:00.468Z,6.53
2019-02-27T03:22:44.179Z,6.58
2019-02-27T03:25:15.702Z,7.12
2019-02-27T03:27:56.064Z,6.58
2019-02-27T03:30:42.694Z,6.72
2019-02-27T03:33:38.112Z,6.72
2019-02-27T03:36:35.966Z,6.83
2019-02-27T03:39:16.002Z,6.80
2019-02-27T03:42:11.826Z,6.53
2019-02-27T03:45:13.502Z,6.87
2019-02-27T03:47:52.235Z,6.95
2019-02-27T03:50:49.425Z,6.60
2019-02-27T03:53:33.804Z,6.97
2019-02-27T03:56:24.528Z,7.33
2019-02-27T03:59:12.445Z,6.67
2019-02-27T04:02:05.769Z,6.42
2019-02-27T04:04:56.186Z,6.65
2019-02-27T04:07:49.909Z,6.67
2019-02-27T04:10:18.365Z,7.17
2019-02-27T04:12:51.395Z,8.00
2019-02-27T04:15:18.155Z,7.15
2019-02-27T04:17:51.694Z,7.35
2019-02-27T04:20:16.661Z,7.37
2019-02-27T04:22:45.082Z,6.62
2019-02-27T04:25:13.564Z,6.70
2019-02-27T04:27:42.038Z,7.67
2019-02-27T04:30:14.694Z,6.55
2019-02-27T04:32:40.849Z,7.33
2019-02-27T04:35:09.261Z,7.17
2019-02-27T04:37:37.720Z,6.75
2019-02-27T04:40:10.861Z,7.55
2019-02-27T04:42:38.142Z,6.92
2019-02-27T04:45:12.009Z,7.37
2019-02-27T04:50:10.944Z,6.30
2019-02-27T04:52:37.831Z,6.75
2019-02-27T04:55:06.567Z,7.33
2019-02-27T04:57:35.008Z,7.10
2019-02-27T05:00:03.886Z,7.40
2019-02-27T05:02:32.328Z,7.37
2019-02-27T05:05:00.818Z,7.33
2019-02-27T05:07:29.268Z,7.10
2019-02-27T05:09:57.702Z,7.62
2019-02-27T05:12:29.044Z,7.47
2019-02-27T05:14:57.501Z,6.53
2019-02-27T05:17:25.928Z,7.22
2019-02-27T05:19:54.399Z,6.80
2019-02-27T05:22:26.447Z,7.00
2019-02-27T05:24:52.977Z,7.55
2019-02-27T05:27:21.420Z,7.42
2019-02-27T05:29:49.838Z,7.58
2019-02-27T05:32:20.587Z,7.37
2019-02-27T05:34:49.826Z,7.45
2019-02-27T05:37:19.004Z,6.97
2019-02-27T05:39:50.920Z,8.13
2019-02-27T05:42:17.579Z,7.53
2019-02-27T05:44:46.067Z,8.10
2019-02-27T05:47:14.598Z,7.40
2019-02-27T05:49:43.181Z,7.70
2019-02-27T05:52:11.849Z,7.47
2019-02-27T05:54:41.813Z,7.33
2019-02-27T05:57:10.275Z,6.67
2019-02-27T05:59:38.738Z,8.25
2019-02-27T06:02:08.712Z,7.47
2019-02-27T06:04:37.479Z,7.28
2019-02-27T06:07:05.929Z,7.60
2019-02-27T06:09:34.359Z,7.22
2019-02-27T06:12:06.643Z,7.58
2019-02-27T06:14:32.945Z,7.60
2019-02-27T06:17:01.366Z,7.70
2019-02-27T06:19:30.620Z,7.33
2019-02-27T06:21:59.966Z,7.53
2019-02-27T06:24:28.424Z,7.90
2019-02-27T06:26:56.880Z,7.90
2019-02-27T06:29:25.310Z,7.62
2019-02-27T06:31:53.744Z,7.30
2019-02-27T06:34:22.289Z,7.70
2019-02-27T06:36:52.419Z,7.37
2019-02-27T06:39:20.847Z,12.05
2019-02-27T06:41:49.740Z,12.00
2019-02-27T06:44:19.163Z,11.35
2019-02-27T06:46:51.113Z,8.28
2019-02-27T06:49:20.648Z,9.50
2019-02-27T06:51:49.110Z,8.25
2019-02-27T06:54:18.462Z,13.68
2019-02-27T06:56:47.418Z,9.45
2019-02-27T06:59:17.909Z,9.18
2019-02-27T07:01:47.490Z,8.55
2019-02-27T07:04:16.219Z,9.45
2019-02-27T07:06:44.903Z,9.18
2019-02-27T07:09:13.316Z,9.73
2019-02-27T07:11:45.253Z,10.08
2019-02-27T07:14:12.007Z,9.03
2019-02-27T07:16:40.465Z,9.23
2019-02-27T07:19:08.958Z,9.25
2019-02-27T07:21:37.405Z,9.38
2019-02-27T07:24:05.918Z,9.55
2019-02-27T07:26:34.402Z,9.50
2019-02-27T07:29:02.874Z,11.05
2019-02-27T07:31:31.341Z,9.03
2019-02-27T07:33:59.775Z,8.73
2019-02-27T07:36:28.218Z,8.85
2019-02-27T07:38:57.527Z,10.03
2019-02-27T07:41:26.696Z,9.18
2019-02-27T07:43:55.119Z,8.08
2019-02-27T07:46:23.606Z,8.25
2019-02-27T07:48:56.273Z,7.55
2019-02-27T07:51:23.346Z,7.35
2019-02-27T07:53:53.795Z,7.42
2019-02-27T07:56:22.492Z,7.22
2019-02-27T07:58:51.005Z,7.70
2019-02-27T08:01:20.950Z,8.65
2019-02-27T08:03:49.595Z,8.55
2019-02-27T08:06:18.058Z,8.65
2019-02-27T08:08:46.494Z,7.85
2019-02-27T08:11:14.934Z,8.20
2019-02-27T08:13:43.386Z,9.90
2019-02-27T08:16:11.883Z,8.95
2019-02-27T08:18:40.368Z,8.60
2019-02-27T08:21:08.853Z,8.50
2019-02-27T08:23:37.465Z,8.25
2019-02-27T08:26:05.898Z,8.63
2019-02-27T08:28:34.360Z,8.08
2019-02-27T08:31:02.792Z,7.80
2019-02-27T08:33:31.206Z,8.10
2019-02-27T08:35:59.655Z,8.20
2019-02-27T08:38:28.110Z,9.33
2019-02-27T08:40:58.258Z,9.83
2019-02-27T08:43:26.761Z,10.28
2019-02-27T08:45:55.278Z,9.48
2019-02-27T08:48:23.704Z,8.65
2019-02-27T08:50:52.170Z,9.80
2019-02-27T08:53:25.862Z,9.83
2019-02-27T08:55:51.393Z,10.30
2019-02-27T08:58:19.952Z,10.13
2019-02-27T09:00:48.479Z,10.80
2019-02-27T09:03:20.178Z,9.98
2019-02-27T09:05:47.841Z,10.85
2019-02-27T09:08:16.327Z,11.12
2019-02-27T09:10:44.805Z,10.72
2019-02-27T09:13:13.295Z,11.60
2019-02-27T09:15:41.874Z,10.95
2019-02-27T09:18:10.306Z,10.90
2019-02-27T09:20:38.745Z,11.45
2019-02-27T09:23:07.651Z,12.20
2019-02-27T09:25:36.222Z,10.65
2019-02-27T09:28:08.809Z,10.65
2019-02-27T09:30:34.930Z,12.18
2019-02-27T09:33:03.451Z,11.75
2019-02-27T09:35:34.590Z,11.08
2019-02-27T09:38:02.260Z,11.55
2019-02-27T09:40:50.793Z,11.08
2019-02-27T09:43:19.317Z,10.68
2019-02-27T09:45:47.844Z,10.38
2019-02-27T09:48:16.318Z,11.80
2019-02-27T09:50:48.349Z,11.90
2019-02-27T09:53:16.354Z,10.15
2019-02-27T09:55:44.822Z,10.78
2019-02-27T09:58:16.012Z,10.95
2019-02-27T10:00:52.048Z,11.15
2019-02-27T10:03:21.513Z,10.78
2019-02-27T10:05:50.435Z,11.22
2019-02-27T10:08:18.990Z,10.70
2019-02-27T10:10:47.482Z,10.78
2019-02-27T10:13:16.086Z,10.05
2019-02-27T10:15:44.625Z,11.05
2019-02-27T10:18:13.131Z,11.10
2019-02-27T10:20:41.642Z,11.10
2019-02-27T10:23:10.071Z,11.18
2019-02-27T10:25:43.237Z,11.25
2019-02-27T10:28:10.614Z,11.15
2019-02-27T10:30:38.987Z,12.33
2019-02-27T10:33:07.476Z,13.13
2019-02-27T10:35:35.939Z,11.12
2019-02-27T10:38:04.546Z,11.28
2019-02-27T10:40:33.278Z,11.48
2019-02-27T10:43:01.709Z,11.60
2019-02-27T10:45:30.230Z,11.68
2019-02-27T10:47:58.676Z,10.48
2019-02-27T10:50:27.118Z,12.37
2019-02-27T10:52:55.568Z,11.12
2019-02-27T10:55:24.130Z,11.63
2019-02-27T10:57:52.614Z,10.95
2019-02-27T11:00:31.939Z,11.33
2019-02-27T11:03:01.596Z,10.68
2019-02-27T11:05:34.664Z,10.70
2019-02-27T11:10:30.981Z,11.18
2019-02-27T11:12:59.610Z,10.53
2019-02-27T11:15:28.072Z,11.68
2019-02-27T11:17:56.733Z,11.48
2019-02-27T11:20:25.499Z,11.22
2019-02-27T11:22:53.952Z,11.15
2019-02-27T11:25:40.465Z,10.88
2019-02-27T11:28:09.063Z,10.30
2019-02-27T11:30:39.293Z,11.95
2019-02-27T11:33:08.062Z,11.68
2019-02-27T11:35:36.586Z,11.12
2019-02-27T11:38:05.378Z,11.93
2019-02-27T11:40:33.867Z,11.15
2019-02-27T11:43:06.299Z,11.45
2019-02-27T11:45:32.671Z,12.03
2019-02-27T11:48:01.197Z,11.75
2019-02-27T11:50:29.754Z,11.50
2019-02-27T11:53:01.528Z,11.40
2019-02-27T11:55:28.413Z,11.68
2019-02-27T11:57:56.948Z,11.20
2019-02-27T12:00:33.810Z,12.20
2019-02-27T12:03:02.388Z,12.18
2019-02-27T12:05:34.023Z,12.20
2019-02-27T12:08:01.089Z,12.40
2019-02-27T12:10:32.759Z,12.30
2019-02-27T12:13:01.731Z,12.05
2019-02-27T12:15:30.678Z,13.28
2019-02-27T12:18:00.585Z,12.30
2019-02-27T12:20:29.554Z,12.88
2019-02-27T12:22:58.089Z,12.73
2019-02-27T12:25:29.164Z,13.20
2019-02-27T12:27:57.643Z,12.20
2019-02-27T12:30:28.620Z,13.18
2019-02-27T12:32:57.284Z,12.35
2019-02-27T12:35:31.695Z,13.70
2019-02-27T12:38:00.215Z,13.13
2019-02-27T12:40:28.813Z,13.98
2019-02-27T12:42:57.359Z,15.08
2019-02-27T12:45:29.703Z,13.90
2019-02-27T12:47:58.186Z,13.30
2019-02-27T12:50:31.402Z,14.78
2019-02-27T12:53:00.201Z,14.28
2019-02-27T12:55:28.813Z,14.85
2019-02-27T12:57:57.329Z,13.75
2019-02-27T13:00:31.174Z,14.03
2019-02-27T13:02:59.626Z,14.87
2019-02-27T13:05:28.861Z,14.10
2019-02-27T13:07:57.550Z,14.50
2019-02-27T13:10:26.966Z,14.93
2019-02-27T13:12:55.946Z,15.40
2019-02-27T13:15:28.474Z,13.68
2019-02-27T13:17:58.043Z,14.78
2019-02-27T13:20:31.327Z,14.63
2019-02-27T13:25:30.337Z,14.13
2019-02-27T13:27:59.165Z,14.93
2019-02-27T13:30:28.425Z,14.35
2019-02-27T13:33:00.709Z,14.28
2019-02-27T13:35:28.606Z,14.90
2019-02-27T13:37:57.669Z,15.18
2019-02-27T13:40:27.538Z,14.75
2019-02-27T13:42:56.142Z,14.28
2019-02-27T13:45:28.580Z,14.55
2019-02-27T13:47:58.974Z,13.80
2019-02-27T13:50:27.410Z,15.48
2019-02-27T13:52:55.843Z,14.50
2019-02-27T13:55:24.938Z,13.90
2019-02-27T13:57:53.393Z,14.35
2019-02-27T14:00:29.441Z,13.35
2019-02-27T14:02:57.922Z,13.68
2019-02-27T14:05:26.564Z,13.80
2019-02-27T14:07:58.537Z,14.45
2019-02-27T14:10:32.684Z,14.53
2019-02-27T14:13:01.127Z,14.07
2019-02-27T14:15:31.335Z,13.72
2019-02-27T14:17:59.956Z,13.18
2019-02-27T14:20:29.173Z,13.88
2019-02-27T14:22:58.202Z,14.38
2019-02-27T14:25:47.562Z,15.20
2019-02-27T14:28:18.362Z,14.58
2019-02-27T14:30:49.242Z,13.70
2019-02-27T14:33:19.446Z,14.28
2019-02-27T14:35:47.886Z,12.95
2019-02-27T14:38:16.298Z,14.43
2019-02-27T14:40:44.910Z,13.28
2019-02-27T14:43:13.374Z,13.58
2019-02-27T14:45:42.016Z,14.87
2019-02-27T14:48:10.489Z,13.88
2019-02-27T14:50:39.103Z,14.33
2019-02-27T14:53:07.568Z,13.98
2019-02-27T14:55:37.446Z,14.13
2019-02-27T14:58:06.905Z,13.62
2019-02-27T15:00:40.868Z,14.07
2019-02-27T15:05:36.970Z,15.30
2019-02-27T15:08:06.383Z,12.93
2019-02-27T15:10:34.892Z,12.80
2019-02-27T15:13:03.301Z,12.95
2019-02-27T15:15:32.701Z,12.95
2019-02-27T15:18:01.379Z,13.05
2019-02-27T15:20:30.578Z,13.85
2019-02-27T15:22:59.114Z,12.98
2019-02-27T15:25:27.922Z,13.55
2019-02-27T15:27:58.875Z,12.43
2019-02-27T15:30:29.494Z,14.05
2019-02-27T15:32:57.902Z,14.15
2019-02-27T15:35:28.319Z,12.68
2019-02-27T15:37:56.741Z,12.93
2019-02-27T15:40:31.193Z,12.90
2019-02-27T15:42:59.674Z,13.00
2019-02-27T15:45:28.953Z,13.22
2019-02-27T15:47:57.581Z,12.47
2019-02-27T15:50:34.203Z,13.22
2019-02-27T15:53:02.647Z,12.75
2019-02-27T15:55:34.279Z,12.20
2019-02-27T15:58:01.467Z,13.40
2019-02-27T16:00:30.276Z,13.28
2019-02-27T16:02:58.720Z,13.45
2019-02-27T16:05:30.507Z,12.45
2019-02-27T16:07:57.345Z,12.33
2019-02-27T16:10:29.132Z,12.95
2019-02-27T16:13:00.939Z,13.30
2019-02-27T16:15:27.877Z,12.43
2019-02-27T16:17:56.409Z,13.50
2019-02-27T16:20:26.080Z,14.05
2019-02-27T16:22:54.507Z,12.73
2019-02-27T16:25:24.175Z,13.68
2019-02-27T16:27:52.856Z,13.20
2019-02-27T16:30:32.334Z,13.65
2019-02-27T16:33:00.324Z,13.48
2019-02-27T16:35:28.925Z,14.35
2019-02-27T16:37:57.929Z,14.05
2019-02-27T16:40:28.671Z,13.22
2019-02-27T16:42:57.217Z,12.78
2019-02-27T16:45:37.101Z,19.48
2019-02-27T16:48:06.235Z,15.10
2019-02-27T16:50:34.778Z,13.95
2019-02-27T16:53:03.176Z,13.15
2019-02-27T16:55:35.702Z,12.53
2019-02-27T16:58:02.139Z,12.78
2019-02-27T17:00:37.218Z,13.35
2019-02-27T17:03:05.829Z,11.85
2019-02-27T17:05:34.368Z,12.00
2019-02-27T17:08:02.950Z,12.33
2019-02-27T17:10:33.987Z,12.30
2019-02-27T17:13:02.705Z,11.85
2019-02-27T17:15:34.587Z,13.75
2019-02-27T17:18:01.668Z,56.90
2019-02-27T17:20:30.289Z,23.50
2019-02-27T17:22:58.805Z,12.82
2019-02-27T17:25:30.021Z,11.90
2019-02-27T17:27:57.586Z,13.35
2019-02-27T17:30:37.779Z,13.22
2019-02-27T17:33:05.313Z,12.45
2019-02-27T17:35:34.418Z,12.40
2019-02-27T17:38:03.227Z,13.53
2019-02-27T17:40:36.502Z,12.13
2019-02-27T17:43:02.217Z,12.15
2019-02-27T17:45:30.684Z,12.00
2019-02-27T17:47:59.149Z,12.37
2019-02-27T17:50:31.382Z,21.07
2019-02-27T17:52:57.840Z,18.55
2019-02-27T17:55:26.331Z,13.80
2019-02-27T17:57:58.594Z,12.82
2019-02-27T18:00:41.161Z,11.97
2019-02-27T18:03:09.795Z,12.07
2019-02-27T18:05:38.379Z,12.20
2019-02-27T18:08:06.886Z,13.05
2019-02-27T18:10:37.589Z,11.95
2019-02-27T18:13:05.720Z,11.12
2019-02-27T18:15:34.290Z,12.13
2019-02-27T18:18:02.783Z,12.13
2019-02-27T18:20:32.161Z,11.70
2019-02-27T18:23:00.932Z,11.70
2019-02-27T18:25:29.441Z,11.30
2019-02-27T18:27:59.552Z,12.85
2019-02-27T18:30:28.202Z,12.30
2019-02-27T18:32:56.722Z,11.95
2019-02-27T18:35:28.797Z,12.20
2019-02-27T18:37:55.586Z,11.57
2019-02-27T18:40:24.168Z,13.22
2019-02-27T18:42:55.603Z,13.15
2019-02-27T18:45:24.989Z,13.95
2019-02-27T18:47:53.458Z,12.90
2019-02-27T18:50:30.854Z,13.08
2019-02-27T18:52:59.331Z,12.82
2019-02-27T18:55:30.733Z,14.03
2019-02-27T18:57:58.090Z,17.85
2019-02-27T19:00:27.961Z,14.70
2019-02-27T19:03:10.326Z,14.70
2019-02-27T19:05:41.792Z,13.85
2019-02-27T19:08:09.145Z,14.47
2019-02-27T19:10:41.375Z,14.73
2019-02-27T19:13:07.822Z,16.40
2019-02-27T19:15:36.804Z,15.32
2019-02-27T19:18:06.555Z,16.12
2019-02-27T19:20:49.373Z,15.60
2019-02-27T19:23:18.547Z,15.35
2019-02-27T19:25:47.524Z,15.30
2019-02-27T19:28:16.065Z,14.65
2019-02-27T19:30:44.637Z,14.55
2019-02-27T19:33:13.176Z,15.08
2019-02-27T19:35:43.275Z,13.38
2019-02-27T19:38:12.966Z,13.93
2019-02-27T19:40:42.339Z,13.48
2019-02-27T19:43:10.878Z,12.85
2019-02-27T19:45:39.412Z,14.35
2019-02-27T19:48:07.953Z,13.50
2019-02-27T19:50:36.574Z,57.35
2019-02-27T19:53:06.902Z,25.75
2019-02-27T19:55:35.851Z,14.13
2019-02-27T19:58:04.479Z,13.48
2019-02-27T20:00:35.172Z,14.15
2019-02-27T20:03:04.210Z,14.38
2019-02-27T20:05:32.803Z,12.82
2019-02-27T20:08:02.517Z,14.00
2019-02-27T20:10:33.218Z,14.03
2019-02-27T20:13:01.844Z,13.70
2019-02-27T20:15:30.936Z,13.60
2019-02-27T20:17:59.617Z,13.85
2019-02-27T20:20:31.132Z,13.05
2019-02-27T20:22:59.752Z,14.07
2019-02-27T20:25:30.103Z,13.08
2019-02-27T20:27:58.972Z,13.53
2019-02-27T20:30:27.722Z,13.05
2019-02-27T20:32:56.284Z,12.90
2019-02-27T20:35:24.758Z,12.73
2019-02-27T20:37:53.488Z,13.05
2019-02-27T20:40:22.122Z,13.08
2019-02-27T20:42:54.851Z,12.82
2019-02-27T20:45:22.219Z,13.03
2019-02-27T20:47:57.691Z,12.85
2019-02-27T20:50:44.230Z,13.80
2019-02-27T20:53:14.092Z,12.88
2019-02-27T20:55:42.669Z,13.53
2019-02-27T20:58:16.114Z,12.82
2019-02-27T21:00:41.475Z,14.20
2019-02-27T21:03:10.035Z,13.38
2019-02-27T21:05:40.854Z,23.87
2019-02-27T21:08:09.118Z,18.85
2019-02-27T21:10:37.568Z,16.80
2019-02-27T21:13:06.161Z,14.18
2019-02-27T21:15:34.812Z,14.40
2019-02-27T21:18:03.457Z,15.45
2019-02-27T21:20:33.197Z,14.23
2019-02-27T21:23:01.900Z,14.18
2019-02-27T21:25:30.375Z,14.05
2019-02-27T21:28:00.417Z,14.18
2019-02-27T21:30:29.364Z,12.85
2019-02-27T21:32:58.104Z,13.80
2019-02-27T21:35:29.784Z,14.00
2019-02-27T21:37:57.189Z,16.60
2019-02-27T21:40:25.825Z,17.42
2019-02-27T21:42:54.266Z,15.32
2019-02-27T21:45:23.559Z,14.25
2019-02-27T21:47:52.959Z,16.10
2019-02-27T21:50:26.044Z,15.78
2019-02-27T21:52:55.617Z,15.03
2019-02-27T21:55:24.599Z,14.03
2019-02-27T21:57:53.160Z,14.70
2019-02-27T22:00:24.295Z,13.13
2019-02-27T22:02:54.681Z,15.20
2019-02-27T22:05:23.266Z,14.93
2019-02-27T22:07:51.802Z,14.28
2019-02-27T22:10:20.672Z,14.25
2019-02-27T22:12:49.386Z,14.25
2019-02-27T22:15:23.859Z,14.63
2019-02-27T22:17:52.351Z,14.07
2019-02-27T22:20:20.882Z,13.75
2019-02-27T22:22:49.290Z,14.63
2019-02-27T22:25:17.848Z,15.13
2019-02-27T22:27:46.713Z,15.03
2019-02-27T22:30:19.232Z,15.43
2019-02-27T22:32:48.688Z,16.12
2019-02-27T22:35:17.306Z,16.90
2019-02-27T22:37:51.289Z,16.62
2019-02-27T22:40:22.684Z,15.70
2019-02-27T22:42:51.101Z,17.57
2019-02-27T22:45:22.498Z,17.65
2019-02-27T22:47:53.851Z,16.65
2019-02-27T22:50:21.750Z,15.75
2019-02-27T22:52:54.121Z,18.23
2019-02-27T22:55:20.562Z,17.57
2019-02-27T22:57:49.061Z,18.20
2019-02-27T23:00:42.987Z,17.37
2019-02-27T23:03:10.232Z,17.17
2019-02-27T23:05:39.098Z,16.35
2019-02-27T23:08:07.866Z,16.73
2019-02-27T23:10:36.358Z,15.98
2019-02-27T23:13:04.952Z,17.35
2019-02-27T23:15:58.072Z,16.95
2019-02-27T23:18:23.196Z,17.00
2019-02-27T23:20:52.534Z,16.35
2019-02-27T23:23:21.820Z,17.32
2019-02-27T23:25:50.315Z,17.48
2019-02-27T23:28:18.892Z,17.17
2019-02-27T23:30:48.008Z,17.30
2019-02-27T23:33:16.907Z,17.10
2019-02-27T23:35:47.397Z,15.95
2019-02-27T23:38:15.576Z,16.57
2019-02-27T23:40:44.094Z,15.60
2019-02-27T23:43:12.570Z,15.05
2019-02-27T23:45:41.380Z,15.85
2019-02-27T23:48:11.156Z,15.30
2019-02-27T23:50:42.620Z,15.10
2019-02-27T23:53:09.943Z,15.43
2019-02-27T23:55:44.144Z,15.43
2019-02-27T23:58:08.739Z,14.30
